Aérodrome :
LOGIN :

S'inscrire | Disclaimer

   EN    FR    IT 

 










Légende :    VFR   VFR Marginal   IFR   IFR Intensif   IFR Très Intensif
Visi : 
Plafond : 
>= 8 km
>= 3000ft
5 à 8 km
1000 à 3000 ft
1500m à 5 km
500 à 1000 ft
800 à 1500m
200 à 500 ft
< 800m
< 200 ft
Symboles :   Orages  Brouillard  Fortes neiges  Fortes précipitations  Vent > 20 kt
SIGMETs :   Divers  Orages  Givrage  Turbulence  Onde Orograph.  Cendres Volcan.







- Altitude de l'aérodrome : 3 ft
- Code IATA : LWR


EHLW - Leuuwarden Air Base

DERNIER METAR :
  • 170925Z AUTO 23011KT 9999 FEW260 14/11 Q1019 BLU 22010KT CAVOK

METARs EXPIRÉS :
  • 170855Z AUTO 23010KT 9999 FEW280 14/11 Q1019 BLU 22010KT CAVOK
  • 170825Z AUTO 21008KT 9999 OVC270 13/11 Q1019 BLU 22010KT CAVOK
  • 170755Z AUTO 22011KT 9999 BKN270 13/11 Q1019 BLU 22010KT CAVOK
  • 170725Z AUTO 21009KT 9999 NCD 12/11 Q1019 BLU 22010KT CAVOK
  • 170655Z AUTO 20005KT 170V230 9999 NCD 11/10 Q1018 BLU 22010KT CAVOK

TAF TAF EHLW
Valide du 17 à 09h jusqu'au 17 à 21h UTC


170745Z 1709/1721 22012KT 9999 FEW025
Pas de NOTAMs connus pour ce terrain.



MET'MAP, la Météo Aéronautique d'un coup d'oeil ! - Copyright ORBIFLY Décembre 2007 - Disclaimer

ORBIFLY MET'MAP TEAM :

Programmation & Développement : Alexandra Zaïnal
Conception & Développement : Baudouin d'Aumeries
Co-Programmation & Développement : Marc-Olivier Méhu
Soutien technique & logistique : Manuel Goepfert

Contact : metmap@orbifly.com




SOURCES & CREDITS :

   NOAA